createdAt,value
2019-01-31T00:01:38.294Z,95324.78
2019-01-31T00:04:40.769Z,95322.63
2019-01-31T00:07:32.476Z,95318.45
2019-01-31T00:10:12.140Z,95318.17
2019-01-31T00:12:54.751Z,95319.05
2019-01-31T00:15:34.659Z,95314.83
2019-01-31T00:18:14.513Z,95311.51
2019-01-31T00:21:00.290Z,95318.98
2019-01-31T00:24:10.446Z,95317.67
2019-01-31T00:26:50.085Z,95318.85
2019-01-31T00:29:38.668Z,95318.39
2019-01-31T00:32:48.745Z,95318.25
2019-01-31T00:35:50.798Z,95318.00
2019-01-31T00:38:36.309Z,95323.30
2019-01-31T00:41:18.832Z,95325.95
2019-01-31T00:44:12.680Z,95322.36
2019-01-31T00:46:49.613Z,95329.10
2019-01-31T00:49:29.562Z,95332.52
2019-01-31T00:52:24.487Z,95338.11
2019-01-31T00:55:15.932Z,95342.70
2019-01-31T00:58:01.514Z,95333.67
2019-01-31T01:04:19.164Z,95333.70
2019-01-31T01:07:07.993Z,95335.71
2019-01-31T01:09:50.992Z,95337.66
2019-01-31T01:12:40.271Z,95338.49
2019-01-31T01:15:29.163Z,95337.83
2019-01-31T01:18:15.037Z,95339.64
2019-01-31T01:21:25.550Z,95344.39
2019-01-31T01:24:11.608Z,95339.42
2019-01-31T01:26:45.825Z,95347.85
2019-01-31T01:29:28.728Z,95349.15
2019-01-31T01:32:23.882Z,95344.87
2019-01-31T01:35:01.618Z,95345.33
2019-01-31T01:37:57.304Z,95350.75
2019-01-31T01:40:57.949Z,95343.23
2019-01-31T01:43:34.924Z,95343.00
2019-01-31T01:46:25.414Z,95343.29
2019-01-31T01:49:11.394Z,95342.32
2019-01-31T01:51:48.508Z,95344.61
2019-01-31T01:54:28.081Z,95346.92
2019-01-31T01:57:30.195Z,95342.11
2019-01-31T02:00:19.231Z,95337.58
2019-01-31T02:03:18.575Z,95328.63
2019-01-31T02:05:55.543Z,95330.74
2019-01-31T02:08:45.906Z,95326.42
2019-01-31T02:11:45.675Z,95322.30
2019-01-31T02:14:43.057Z,95324.92
2019-01-31T02:17:22.915Z,95329.13
2019-01-31T02:20:26.458Z,95320.72
2019-01-31T02:23:15.704Z,95320.14
2019-01-31T02:26:16.661Z,95315.81
2019-01-31T02:29:11.024Z,95311.00
2019-01-31T02:32:05.430Z,95308.45
2019-01-31T02:35:00.359Z,95307.14
2019-01-31T02:37:45.897Z,95295.63
2019-01-31T02:40:34.843Z,95294.45
2019-01-31T02:46:20.001Z,95291.35
2019-01-31T02:49:23.139Z,95286.81
2019-01-31T02:52:16.731Z,95288.39
2019-01-31T02:54:53.843Z,95288.20
2019-01-31T02:57:52.164Z,95278.39
2019-01-31T03:00:31.826Z,95278.30
2019-01-31T03:03:14.972Z,95283.72
2019-01-31T03:05:49.159Z,95280.47
2019-01-31T03:08:41.592Z,95276.92
2019-01-31T03:11:27.698Z,95283.03
2019-01-31T03:14:09.998Z,95282.97
2019-01-31T03:17:08.159Z,95283.55
2019-01-31T03:20:07.497Z,95279.31
2019-01-31T03:23:10.234Z,95285.84
2019-01-31T03:25:53.169Z,95287.02
2019-01-31T03:28:53.980Z,95285.63
2019-01-31T03:31:36.696Z,95284.17
2019-01-31T03:34:19.565Z,95293.07
2019-01-31T03:37:17.400Z,95290.23
2019-01-31T03:40:05.736Z,95284.19
2019-01-31T03:42:32.692Z,95290.93
2019-01-31T03:45:06.932Z,95295.59
2019-01-31T03:48:12.594Z,95280.51
2019-01-31T03:51:13.352Z,95286.05
2019-01-31T03:54:09.856Z,95282.63
2019-01-31T03:56:44.048Z,95283.16
2019-01-31T03:59:23.902Z,95283.84
2019-01-31T04:02:06.971Z,95286.34
2019-01-31T04:04:46.882Z,95289.70
2019-01-31T04:07:16.245Z,95289.16
2019-01-31T04:09:45.644Z,95289.42
2019-01-31T04:12:15.008Z,95282.13
2019-01-31T04:14:44.401Z,95280.63
2019-01-31T04:17:13.708Z,95282.77
2019-01-31T04:19:43.007Z,95283.02
2019-01-31T04:22:12.330Z,95280.39
2019-01-31T04:24:41.696Z,95282.83
2019-01-31T04:27:11.021Z,95281.23
2019-01-31T04:29:40.322Z,95285.83
2019-01-31T04:32:09.648Z,95282.63
2019-01-31T04:34:38.952Z,95287.43
2019-01-31T04:37:08.354Z,95294.09
2019-01-31T04:39:37.658Z,95290.33
2019-01-31T04:42:06.953Z,95293.19
2019-01-31T04:44:36.282Z,95289.95
2019-01-31T04:47:05.600Z,95289.86
2019-01-31T04:49:34.899Z,95293.78
2019-01-31T04:52:04.297Z,95296.84
2019-01-31T04:54:33.623Z,95289.43
2019-01-31T04:57:02.973Z,95287.12
2019-01-31T04:59:32.336Z,95293.52
2019-01-31T05:02:01.633Z,95287.61
2019-01-31T05:04:31.024Z,95285.64
2019-01-31T05:07:00.321Z,95290.43
2019-01-31T05:09:29.646Z,95293.04
2019-01-31T05:11:58.945Z,95294.53
2019-01-31T05:14:28.347Z,95292.27
2019-01-31T05:16:57.719Z,95288.58
2019-01-31T05:19:27.089Z,95289.58
2019-01-31T05:21:56.411Z,95287.31
2019-01-31T05:24:25.714Z,95293.17
2019-01-31T05:26:55.038Z,95295.03
2019-01-31T05:29:24.334Z,95295.53
2019-01-31T05:31:53.665Z,95296.56
2019-01-31T05:34:23.051Z,95296.97
2019-01-31T05:36:52.350Z,95311.44
2019-01-31T05:39:21.769Z,95307.38
2019-01-31T05:41:52.422Z,95309.88
2019-01-31T05:44:21.754Z,95314.14
2019-01-31T05:46:51.116Z,95313.97
2019-01-31T05:49:20.463Z,95309.38
2019-01-31T05:51:49.778Z,95304.02
2019-01-31T05:54:19.078Z,95302.94
2019-01-31T05:56:48.405Z,95303.23
2019-01-31T05:59:17.738Z,95309.47
2019-01-31T06:01:47.032Z,95311.00
2019-01-31T06:04:16.363Z,95314.41
2019-01-31T06:06:45.689Z,95315.96
2019-01-31T06:09:14.988Z,95311.46
2019-01-31T06:11:44.314Z,95318.11
2019-01-31T06:14:13.616Z,95321.21
2019-01-31T06:16:43.010Z,95328.23
2019-01-31T06:19:12.314Z,95321.81
2019-01-31T06:21:41.683Z,95323.41
2019-01-31T06:24:10.945Z,95334.14
2019-01-31T06:26:40.279Z,95334.98
2019-01-31T06:32:21.289Z,95338.83
2019-01-31T06:34:50.588Z,95342.73
2019-01-31T06:37:19.908Z,95342.51
2019-01-31T06:39:49.222Z,95346.60
2019-01-31T06:42:18.559Z,95342.45
2019-01-31T06:44:47.860Z,95343.87
2019-01-31T06:47:17.165Z,95340.25
2019-01-31T06:49:46.484Z,95342.13
2019-01-31T06:52:15.924Z,95344.48
2019-01-31T06:54:45.248Z,95347.05
2019-01-31T06:57:14.556Z,95349.64
2019-01-31T06:59:43.869Z,95348.22
2019-01-31T07:02:13.170Z,95349.80
2019-01-31T07:04:42.496Z,95356.95
2019-01-31T07:07:11.865Z,95356.88
2019-01-31T07:09:41.188Z,95364.03
2019-01-31T07:12:10.823Z,95361.58
2019-01-31T07:14:40.116Z,95362.47
2019-01-31T07:17:09.517Z,95364.80
2019-01-31T07:19:38.847Z,95363.31
2019-01-31T07:22:08.138Z,95364.06
2019-01-31T07:24:37.476Z,95368.88
2019-01-31T07:27:06.869Z,95375.34
2019-01-31T07:29:36.236Z,95368.00
2019-01-31T07:32:05.537Z,95361.94
2019-01-31T07:34:34.869Z,95364.38
2019-01-31T07:37:04.271Z,95365.23
2019-01-31T07:39:33.571Z,95373.71
2019-01-31T07:42:02.869Z,95373.62
2019-01-31T07:44:32.577Z,95371.50
2019-01-31T07:47:01.874Z,95376.53
2019-01-31T07:49:31.220Z,95374.19
2019-01-31T07:52:00.501Z,95374.41
2019-01-31T07:54:29.828Z,95374.92
2019-01-31T07:56:59.196Z,95362.83
2019-01-31T07:59:28.524Z,95365.43
2019-01-31T08:01:57.867Z,95362.73
2019-01-31T08:04:27.197Z,95368.63
2019-01-31T08:06:56.514Z,95368.73
2019-01-31T08:09:25.812Z,95372.41
2019-01-31T08:11:55.124Z,95366.16
2019-01-31T08:14:24.419Z,95365.55
2019-01-31T08:16:53.752Z,95366.17
2019-01-31T08:19:23.077Z,95370.25
2019-01-31T08:21:52.376Z,95368.37
2019-01-31T08:24:21.771Z,95372.77
2019-01-31T08:26:51.057Z,95371.98
2019-01-31T08:29:20.385Z,95368.19
2019-01-31T08:31:49.693Z,95371.65
2019-01-31T08:34:19.005Z,95375.34
2019-01-31T08:36:48.288Z,95376.00
2019-01-31T08:39:17.610Z,95374.77
2019-01-31T08:41:46.936Z,95371.61
2019-01-31T08:44:16.331Z,95375.66
2019-01-31T08:46:45.626Z,95378.52
2019-01-31T08:49:15.193Z,95387.56
2019-01-31T08:51:44.639Z,95383.02
2019-01-31T08:54:13.989Z,95385.46
2019-01-31T08:56:43.355Z,95390.83
2019-01-31T08:59:12.655Z,95392.78
2019-01-31T09:01:41.973Z,95389.44
2019-01-31T09:04:11.338Z,95397.48
2019-01-31T09:06:40.823Z,95397.84
2019-01-31T09:09:11.177Z,95399.11
2019-01-31T09:11:40.484Z,95399.77
2019-01-31T09:14:09.771Z,95407.41
2019-01-31T09:16:39.062Z,95405.75
2019-01-31T09:19:08.456Z,95408.65
2019-01-31T09:21:40.149Z,95404.00
2019-01-31T09:24:38.266Z,95402.86
2019-01-31T09:27:27.334Z,95407.34
2019-01-31T09:30:38.863Z,95411.86
2019-01-31T09:33:18.605Z,95415.30
2019-01-31T09:36:07.844Z,95416.08
2019-01-31T09:38:50.958Z,95423.17
2019-01-31T09:41:37.024Z,95429.33
2019-01-31T09:44:47.017Z,95424.70
2019-01-31T09:47:27.208Z,95427.19
2019-01-31T09:53:09.039Z,95427.35
2019-01-31T09:56:13.540Z,95429.17
2019-01-31T09:59:20.981Z,95426.37
2019-01-31T10:02:29.839Z,95415.64
2019-01-31T10:05:21.334Z,95413.20
2019-01-31T10:08:28.704Z,95408.09
2019-01-31T10:11:19.430Z,95405.57
2019-01-31T10:13:53.614Z,95398.62
2019-01-31T10:16:52.784Z,95408.89
2019-01-31T10:19:38.858Z,95406.09
2019-01-31T10:22:36.572Z,95402.99
2019-01-31T10:25:31.675Z,95402.63
2019-01-31T10:28:29.601Z,95398.92
2019-01-31T10:31:24.671Z,95397.31
2019-01-31T10:34:15.043Z,95398.20
2019-01-31T10:37:07.383Z,95396.53
2019-01-31T10:39:59.026Z,95394.38
2019-01-31T10:42:48.914Z,95386.41
2019-01-31T10:45:50.791Z,95384.09
2019-01-31T10:52:30.085Z,95378.28
2019-01-31T10:55:39.935Z,95377.98
2019-01-31T10:58:32.986Z,95373.83
2019-01-31T11:01:15.735Z,95374.66
2019-01-31T11:04:19.785Z,95369.31
2019-01-31T11:07:02.843Z,95373.17
2019-01-31T11:09:42.666Z,95367.72
2019-01-31T11:12:43.840Z,95365.84
2019-01-31T11:15:44.599Z,95357.48
2019-01-31T11:18:48.292Z,95357.73
2019-01-31T11:21:25.298Z,95351.30
2019-01-31T11:24:33.918Z,95354.02
2019-01-31T11:27:25.889Z,95350.39
2019-01-31T11:30:17.741Z,95344.55
2019-01-31T11:33:36.419Z,95344.14
2019-01-31T11:36:45.061Z,95347.34
2019-01-31T11:39:51.604Z,95350.02
2019-01-31T11:42:31.417Z,95343.59
2019-01-31T11:45:20.305Z,95343.31
2019-01-31T11:48:02.684Z,95332.84
2019-01-31T11:50:36.860Z,95329.50
2019-01-31T11:53:51.248Z,95333.12
2019-01-31T11:56:39.921Z,95329.05
2019-01-31T11:59:09.244Z,95331.75
2019-01-31T12:01:38.598Z,95332.00
2019-01-31T12:04:08.916Z,95331.38
2019-01-31T12:06:38.435Z,95329.83
2019-01-31T12:09:11.110Z,95328.37
2019-01-31T12:11:40.506Z,95326.72
2019-01-31T12:14:09.801Z,95324.75
2019-01-31T12:16:39.106Z,95323.20
2019-01-31T12:19:08.413Z,95322.23
2019-01-31T12:21:37.804Z,95317.72
2019-01-31T12:24:16.091Z,95326.52
2019-01-31T12:26:38.223Z,95316.80
2019-01-31T12:29:07.508Z,95317.06
2019-01-31T12:31:36.822Z,95313.57
2019-01-31T12:34:07.738Z,95311.44
2019-01-31T12:36:37.130Z,95298.48
2019-01-31T12:39:08.824Z,95299.81
2019-01-31T12:41:38.149Z,95298.03
2019-01-31T12:44:07.507Z,95296.41
2019-01-31T12:46:36.816Z,95300.41
2019-01-31T12:49:06.107Z,95293.19
2019-01-31T12:51:35.431Z,95292.09
2019-01-31T12:54:04.864Z,95293.05
2019-01-31T12:56:34.186Z,95285.25
2019-01-31T12:59:03.472Z,95283.55
2019-01-31T13:01:32.793Z,95278.43
2019-01-31T13:04:02.095Z,95277.49
2019-01-31T13:06:31.390Z,95277.88
2019-01-31T13:09:00.717Z,95276.62
2019-01-31T13:11:30.030Z,95282.84
2019-01-31T13:13:59.397Z,95278.72
2019-01-31T13:16:28.713Z,95275.14
2019-01-31T13:18:58.035Z,95272.61
2019-01-31T13:21:27.325Z,95272.95
2019-01-31T13:23:56.653Z,95268.94
2019-01-31T13:26:25.969Z,95267.32
2019-01-31T13:28:55.264Z,95269.05
2019-01-31T13:31:25.628Z,95272.47
2019-01-31T13:33:54.942Z,95276.84
2019-01-31T13:36:24.337Z,95270.31
2019-01-31T13:38:53.628Z,95274.80
2019-01-31T13:41:22.962Z,95274.23
2019-01-31T13:43:57.796Z,95273.72
2019-01-31T13:46:23.372Z,95272.58
2019-01-31T13:48:52.706Z,95272.98
2019-01-31T13:51:22.013Z,95271.65
2019-01-31T13:53:51.293Z,95276.61
2019-01-31T13:56:20.605Z,95280.27
2019-01-31T13:58:49.954Z,95287.62
2019-01-31T14:01:19.245Z,95287.20
2019-01-31T14:03:48.536Z,95276.84
2019-01-31T14:06:17.859Z,95277.77
2019-01-31T14:08:47.186Z,95278.31
2019-01-31T14:11:16.551Z,95278.09
2019-01-31T14:13:45.872Z,95279.09
2019-01-31T14:16:15.226Z,95288.65
2019-01-31T14:18:44.610Z,95284.44
2019-01-31T14:21:13.931Z,95289.25
2019-01-31T14:23:43.392Z,95286.28
2019-01-31T14:26:12.684Z,95285.81
2019-01-31T14:28:41.996Z,95282.64
2019-01-31T14:31:11.332Z,95285.98
2019-01-31T14:33:40.646Z,95288.08
2019-01-31T14:36:09.931Z,95287.77
2019-01-31T14:38:39.244Z,95300.22
2019-01-31T14:41:08.610Z,95296.27
2019-01-31T14:43:37.921Z,95298.05
2019-01-31T14:46:07.312Z,95301.58
2019-01-31T14:48:36.772Z,95307.42
2019-01-31T14:51:06.069Z,95303.71
2019-01-31T14:53:35.370Z,95309.55
2019-01-31T14:56:04.689Z,95309.45
2019-01-31T14:58:34.010Z,95296.84
2019-01-31T15:01:03.337Z,95298.20
2019-01-31T15:03:32.629Z,95304.20
2019-01-31T15:06:03.552Z,95316.11
2019-01-31T15:08:33.337Z,95305.93
2019-01-31T15:11:02.662Z,95304.30
2019-01-31T15:13:31.952Z,95310.08
2019-01-31T15:16:01.269Z,95312.56
2019-01-31T15:18:30.655Z,95310.09
2019-01-31T15:20:59.943Z,95309.40
2019-01-31T15:23:29.253Z,95314.34
2019-01-31T15:25:58.603Z,95316.48
2019-01-31T15:28:27.942Z,95317.84
2019-01-31T15:30:57.250Z,95315.36
2019-01-31T15:33:26.550Z,95322.90
2019-01-31T15:35:55.867Z,95327.87
2019-01-31T15:38:25.183Z,95327.93
2019-01-31T15:40:54.470Z,95324.27
2019-01-31T15:43:23.792Z,95318.38
2019-01-31T15:45:53.079Z,95323.97
2019-01-31T15:48:22.470Z,95323.34
2019-01-31T15:50:51.774Z,95318.25
2019-01-31T15:53:22.290Z,95320.41
2019-01-31T15:55:51.664Z,95317.80
2019-01-31T15:58:20.955Z,95319.47
2019-01-31T16:00:51.301Z,95317.80
2019-01-31T16:03:21.060Z,95321.91
2019-01-31T16:05:50.411Z,95327.66
2019-01-31T16:08:19.736Z,95329.99
2019-01-31T16:10:49.083Z,95332.28
2019-01-31T16:13:18.570Z,95340.68
2019-01-31T16:15:47.998Z,95338.22
2019-01-31T16:18:17.290Z,95344.63
2019-01-31T16:20:46.581Z,95348.08
2019-01-31T16:23:15.965Z,95343.30
2019-01-31T16:25:47.626Z,95345.11
2019-01-31T16:28:16.298Z,95346.76
2019-01-31T16:30:45.582Z,95339.21
2019-01-31T16:33:14.902Z,95333.61
2019-01-31T16:35:44.225Z,95343.96
2019-01-31T16:38:13.583Z,95338.88
2019-01-31T16:40:42.978Z,95346.27
2019-01-31T16:43:12.304Z,95343.16
2019-01-31T16:45:41.595Z,95347.25
2019-01-31T16:48:10.970Z,95346.25
2019-01-31T16:50:40.289Z,95347.91
2019-01-31T16:53:09.584Z,95346.09
2019-01-31T16:55:38.900Z,95350.71
2019-01-31T16:58:08.188Z,95351.37
2019-01-31T17:00:37.509Z,95349.06
2019-01-31T17:03:06.803Z,95353.16
2019-01-31T17:05:36.132Z,95359.25
2019-01-31T17:08:05.699Z,95370.76
2019-01-31T17:10:34.990Z,95369.79
2019-01-31T17:13:04.689Z,95375.02
2019-01-31T17:15:34.008Z,95380.13
2019-01-31T17:18:03.297Z,95384.72
2019-01-31T17:20:39.441Z,95379.30
2019-01-31T17:23:08.736Z,95373.05
2019-01-31T17:25:38.054Z,95374.53
2019-01-31T17:28:07.344Z,95370.95
2019-01-31T17:30:36.703Z,95373.08
2019-01-31T17:33:05.956Z,95372.89
2019-01-31T17:35:35.339Z,95370.75
2019-01-31T17:38:04.700Z,95369.12
2019-01-31T17:40:37.213Z,95370.27
2019-01-31T17:43:08.309Z,95364.67
2019-01-31T17:45:37.604Z,95358.58
2019-01-31T17:48:07.154Z,95364.83
2019-01-31T17:50:36.474Z,95373.21
2019-01-31T17:53:05.837Z,95376.98
2019-01-31T17:55:35.148Z,95376.66
2019-01-31T17:58:04.475Z,95381.59
2019-01-31T18:00:44.592Z,95378.81
2019-01-31T18:03:13.884Z,95382.91
2019-01-31T18:05:43.203Z,95389.63
2019-01-31T18:08:12.518Z,95391.13
2019-01-31T18:10:42.016Z,95386.04
2019-01-31T18:13:11.275Z,95385.06
2019-01-31T18:15:42.615Z,95381.43
2019-01-31T18:18:11.749Z,95384.23
2019-01-31T18:20:41.073Z,95382.91
2019-01-31T18:23:10.370Z,95386.86
2019-01-31T18:25:39.689Z,95380.59
2019-01-31T18:28:09.057Z,95394.11
2019-01-31T18:30:38.944Z,95393.88
2019-01-31T18:33:08.257Z,95396.02
2019-01-31T18:35:37.575Z,95400.47
2019-01-31T18:38:06.866Z,95399.33
2019-01-31T18:40:36.827Z,95396.69
2019-01-31T18:43:06.215Z,95400.12
2019-01-31T18:45:36.665Z,95398.02
2019-01-31T18:48:06.910Z,95395.34
2019-01-31T18:50:40.191Z,95392.70
2019-01-31T18:53:09.726Z,95392.82
2019-01-31T18:55:39.066Z,95387.82
2019-01-31T18:58:08.433Z,95393.70
2019-01-31T19:00:41.043Z,95387.11
2019-01-31T19:03:10.357Z,95394.48
2019-01-31T19:05:39.787Z,95395.70
2019-01-31T19:08:09.401Z,95400.83
2019-01-31T19:10:43.280Z,95400.66
2019-01-31T19:13:09.787Z,95400.03
2019-01-31T19:15:39.100Z,95397.80
2019-01-31T19:18:08.420Z,95397.37
2019-01-31T19:20:37.738Z,95394.89
2019-01-31T19:23:08.365Z,95390.23
2019-01-31T19:25:37.655Z,95387.28
2019-01-31T19:28:07.217Z,95391.16
2019-01-31T19:30:38.847Z,95396.95
2019-01-31T19:33:08.606Z,95404.69
2019-01-31T19:35:38.133Z,95398.36
2019-01-31T19:38:08.039Z,95392.81
2019-01-31T19:40:40.573Z,95392.94
2019-01-31T19:43:09.893Z,95387.51
2019-01-31T19:45:47.831Z,95394.39
2019-01-31T19:48:17.165Z,95390.06
2019-01-31T19:50:46.469Z,95393.90
2019-01-31T19:53:15.764Z,95381.64
2019-01-31T19:55:45.147Z,95380.89
2019-01-31T19:58:14.469Z,95377.89
2019-01-31T20:00:43.790Z,95382.27
2019-01-31T20:03:13.087Z,95375.13
2019-01-31T20:05:42.421Z,95379.59
2019-01-31T20:08:11.789Z,95385.61
2019-01-31T20:10:41.252Z,95385.33
2019-01-31T20:13:10.582Z,95391.38
2019-01-31T20:15:39.873Z,95389.37
2019-01-31T20:18:09.341Z,95403.00
2019-01-31T20:20:38.707Z,95408.48
2019-01-31T20:23:10.852Z,95411.81
2019-01-31T20:25:39.122Z,95405.06
2019-01-31T20:28:08.444Z,95411.58
2019-01-31T20:30:37.743Z,95413.41
2019-01-31T20:33:07.036Z,95422.53
2019-01-31T20:35:36.350Z,95421.88
2019-01-31T20:38:05.688Z,95420.56
2019-01-31T20:40:38.192Z,95423.64
2019-01-31T20:43:07.548Z,95425.41
2019-01-31T20:45:36.863Z,95418.84
2019-01-31T20:48:06.475Z,95412.77
2019-01-31T20:50:38.174Z,95415.71
2019-01-31T20:53:07.773Z,95419.47
2019-01-31T20:55:37.079Z,95410.83
2019-01-31T20:58:06.539Z,95415.45
2019-01-31T21:00:41.380Z,95419.75
2019-01-31T21:03:11.002Z,95420.45
2019-01-31T21:05:40.759Z,95422.20
2019-01-31T21:08:10.216Z,95415.33
2019-01-31T21:10:39.510Z,95415.23
2019-01-31T21:13:08.911Z,95422.25
2019-01-31T21:15:38.341Z,95411.39
2019-01-31T21:18:07.913Z,95404.00
2019-01-31T21:20:37.205Z,95407.41
2019-01-31T21:23:06.593Z,95402.63
2019-01-31T21:25:35.913Z,95389.71
2019-01-31T21:28:05.886Z,95394.81
2019-01-31T21:30:38.021Z,95395.89
2019-01-31T21:33:07.334Z,95385.50
2019-01-31T21:35:36.666Z,95391.55
2019-01-31T21:38:06.033Z,95382.05
2019-01-31T21:40:36.071Z,95378.91
2019-01-31T21:43:06.338Z,95380.39
2019-01-31T21:45:35.667Z,95380.68
2019-01-31T21:48:05.575Z,95381.73
2019-01-31T21:50:34.865Z,95390.75
2019-01-31T21:53:04.255Z,95391.28
2019-01-31T21:55:33.542Z,95394.83
2019-01-31T21:58:02.862Z,95397.11
2019-01-31T22:00:34.594Z,95387.75
2019-01-31T22:03:04.831Z,95384.09
2019-01-31T22:05:34.151Z,95375.92
2019-01-31T22:08:03.477Z,95385.32
2019-01-31T22:10:32.765Z,95380.98
2019-01-31T22:13:02.951Z,95390.30
2019-01-31T22:15:35.458Z,95394.95
2019-01-31T22:18:05.312Z,95395.19
2019-01-31T22:20:34.611Z,95393.44
2019-01-31T22:23:03.944Z,95395.30
2019-01-31T22:25:33.296Z,95397.19
2019-01-31T22:28:02.615Z,95401.42
2019-01-31T22:30:35.038Z,95405.33
2019-01-31T22:33:04.818Z,95403.66
2019-01-31T22:35:34.268Z,95407.37
2019-01-31T22:38:03.565Z,95399.97
2019-01-31T22:40:32.957Z,95397.78
2019-01-31T22:43:02.246Z,95400.80
2019-01-31T22:45:31.564Z,95394.95
2019-01-31T22:48:00.875Z,95388.66
2019-01-31T22:50:30.269Z,95382.45
2019-01-31T22:52:59.557Z,95381.74
2019-01-31T22:55:28.869Z,95387.80
2019-01-31T22:57:58.190Z,95392.52
2019-01-31T23:00:36.531Z,95379.14
2019-01-31T23:03:05.856Z,95379.72
2019-01-31T23:05:35.148Z,95392.32
2019-01-31T23:08:04.462Z,95387.50
2019-01-31T23:10:33.786Z,95382.00
2019-01-31T23:13:03.105Z,95369.02
2019-01-31T23:15:32.412Z,95379.82
2019-01-31T23:18:01.737Z,95378.45
2019-01-31T23:20:31.157Z,95376.44
2019-01-31T23:23:01.919Z,95369.27
2019-01-31T23:25:39.609Z,95376.31
2019-01-31T23:28:02.254Z,95382.22
2019-01-31T23:30:31.643Z,95381.28
2019-01-31T23:33:00.957Z,95381.34
2019-01-31T23:35:30.255Z,95379.09
2019-01-31T23:37:59.569Z,95381.03
2019-01-31T23:40:28.882Z,95389.02
2019-01-31T23:42:58.264Z,95372.49
2019-01-31T23:45:27.584Z,95378.63
2019-01-31T23:47:56.910Z,95365.75
2019-01-31T23:50:26.228Z,95386.94
2019-01-31T23:52:55.518Z,95381.42
2019-01-31T23:55:24.839Z,95384.18
2019-01-31T23:57:54.129Z,95373.50
